Time;durP1;ratioP1;P1;durP2;ratioP2;P2;SDS_P1;SDS_P2;PMS_P1;PMS_P2;Temp;Humidity;BMP_temperature;BMP_pressure;BME280_temperature;BME280_humidity;BME280_pressure;Samples;Min_cycle;Max_cycle;Signal;HPM_P1;HPM_P2
2023/12/23 00:00:37;;;;;;;2.40;0.40;;;11.40;99.90;;;;;;924131;152;27380;-85
2023/12/23 00:03:04;;;;;;;0.60;0.50;;;11.30;99.90;;;;;;930328;151;27349;-84
2023/12/23 00:05:30;;;;;;;0.50;0.50;;;11.20;99.90;;;;;;970501;143;27335;-83
2023/12/23 00:07:57;;;;;;;0.70;0.70;;;11.10;99.90;;;;;;975215;143;27245;-85
2023/12/23 00:10:23;;;;;;;0.50;0.50;;;11.00;99.90;;;;;;975670;143;27304;-85
2023/12/23 00:12:50;;;;;;;0.40;0.40;;;10.90;99.90;;;;;;971924;145;27385;-84
2023/12/23 00:15:16;;;;;;;0.70;0.50;;;10.80;99.90;;;;;;969333;145;27746;-84
2023/12/23 00:17:43;;;;;;;1.80;0.60;;;10.80;99.90;;;;;;967524;145;27349;-85
2023/12/23 00:20:10;;;;;;;0.60;0.60;;;10.70;99.90;;;;;;971029;145;27705;-84
2023/12/23 00:22:36;;;;;;;0.37;0.37;;;10.70;99.90;;;;;;970696;145;27321;-85
2023/12/23 00:25:03;;;;;;;1.10;0.57;;;10.70;99.90;;;;;;971765;145;27284;-83
2023/12/23 00:27:29;;;;;;;0.70;0.70;;;10.60;99.90;;;;;;967338;145;27357;-85
2023/12/23 00:29:56;;;;;;;0.40;0.40;;;10.60;99.90;;;;;;971655;145;27267;-84
2023/12/23 00:32:23;;;;;;;0.97;0.57;;;10.60;99.90;;;;;;971054;145;27333;-86
2023/12/23 00:34:49;;;;;;;1.17;0.67;;;10.50;99.90;;;;;;970907;145;27326;-84
2023/12/23 00:37:16;;;;;;;0.50;0.50;;;10.50;99.90;;;;;;967929;145;27288;-84
2023/12/23 00:39:42;;;;;;;0.60;0.60;;;10.50;99.90;;;;;;971051;144;27211;-86
2023/12/23 00:42:09;;;;;;;0.50;0.50;;;10.50;99.90;;;;;;970914;144;27305;-86
2023/12/23 00:44:36;;;;;;;0.30;0.30;;;10.50;99.90;;;;;;971659;143;27290;-85
2023/12/23 00:47:02;;;;;;;1.20;0.70;;;10.50;99.90;;;;;;969866;144;27270;-87
2023/12/23 00:49:29;;;;;;;2.00;0.90;;;10.40;99.90;;;;;;974812;144;27250;-85
2023/12/23 00:51:55;;;;;;;1.50;0.60;;;10.40;99.90;;;;;;969989;144;27266;-84
2023/12/23 00:54:23;;;;;;;1.30;0.83;;;10.50;99.90;;;;;;972067;143;27310;-87
2023/12/23 00:56:48;;;;;;;2.07;0.90;;;10.50;99.90;;;;;;971025;143;27242;-83
2023/12/23 00:59:15;;;;;;;0.70;0.70;;;10.50;99.90;;;;;;972488;143;27266;-83
2023/12/23 01:01:44;;;;;;;1.07;0.60;;;10.50;99.90;;;;;;972453;144;27351;-82
2023/12/23 01:04:11;;;;;;;0.47;0.47;;;10.50;99.90;;;;;;970323;143;27798;-83
2023/12/23 01:06:38;;;;;;;0.40;0.40;;;10.50;99.90;;;;;;972261;143;27298;-83
2023/12/23 01:09:04;;;;;;;1.33;0.57;;;10.50;99.90;;;;;;971604;143;28222;-86
2023/12/23 01:11:31;;;;;;;0.50;0.50;;;10.50;99.90;;;;;;971660;143;27596;-86
2023/12/23 01:13:57;;;;;;;0.50;0.50;;;10.50;99.90;;;;;;970318;144;27278;-88
2023/12/23 01:16:24;;;;;;;1.17;0.60;;;10.50;99.90;;;;;;971806;144;27346;-87
2023/12/23 01:18:51;;;;;;;0.30;0.30;;;10.50;99.90;;;;;;971333;144;27258;-86
2023/12/23 01:21:20;;;;;;;0.70;0.70;;;10.50;99.90;;;;;;966779;144;27255;-85
2023/12/23 01:23:44;;;;;;;0.67;0.40;;;10.50;99.90;;;;;;972498;144;27378;-86
2023/12/23 01:26:10;;;;;;;0.90;0.57;;;10.50;99.90;;;;;;970542;144;27386;-86
2023/12/23 01:28:37;;;;;;;2.10;0.50;;;10.50;99.90;;;;;;966637;145;27199;-86
2023/12/23 01:31:03;;;;;;;0.50;0.50;;;10.50;99.90;;;;;;964291;144;27338;-85
2023/12/23 01:33:30;;;;;;;0.30;0.30;;;10.50;99.90;;;;;;969228;143;27309;-86
2023/12/23 01:35:57;;;;;;;0.73;0.40;;;10.50;99.90;;;;;;973389;144;27357;-85
2023/12/23 01:38:23;;;;;;;0.80;0.60;;;10.50;99.90;;;;;;972417;144;28286;-85
2023/12/23 01:40:50;;;;;;;0.80;0.47;;;10.50;99.90;;;;;;972873;144;27282;-86
2023/12/23 01:43:16;;;;;;;0.70;0.70;;;10.40;99.90;;;;;;970753;144;27274;-86
2023/12/23 01:45:43;;;;;;;1.10;0.87;;;10.40;99.90;;;;;;969983;144;27267;-86
2023/12/23 01:48:10;;;;;;;2.17;0.60;;;10.40;99.90;;;;;;969721;143;27332;-87
2023/12/23 01:50:36;;;;;;;0.47;0.47;;;10.50;99.90;;;;;;972298;144;27338;-85
2023/12/23 01:53:03;;;;;;;0.40;0.40;;;10.50;99.90;;;;;;967919;144;27719;-85
2023/12/23 01:55:31;;;;;;;0.67;0.40;;;10.50;99.90;;;;;;971270;144;27253;-88
2023/12/23 01:57:56;;;;;;;1.30;0.90;;;10.50;99.90;;;;;;969049;144;27330;-87
2023/12/23 02:00:22;;;;;;;0.50;0.50;;;10.50;99.90;;;;;;933474;149;27458;-84
2023/12/23 02:02:49;;;;;;;0.50;0.50;;;10.50;99.90;;;;;;973268;143;27245;-88
2023/12/23 02:05:16;;;;;;;0.53;0.47;;;10.50;99.90;;;;;;969061;143;27335;-87
2023/12/23 02:07:45;;;;;;;0.90;0.50;;;10.50;99.90;;;;;;971519;144;27406;-88
2023/12/23 02:10:11;;;;;;;1.83;1.20;;;10.60;99.90;;;;;;971473;144;27456;-87
2023/12/23 02:12:46;;;;;;;0.80;0.50;;;10.60;99.90;;;;;;971369;144;27337;-85
2023/12/23 02:15:14;;;;;;;0.67;0.53;;;10.60;99.90;;;;;;970618;143;27316;-86
2023/12/23 02:17:40;;;;;;;0.43;0.40;;;10.60;99.90;;;;;;975416;143;27329;-86
2023/12/23 02:20:06;;;;;;;0.40;0.40;;;10.60;99.90;;;;;;975369;143;27322;-85
2023/12/23 02:22:33;;;;;;;0.43;0.43;;;10.60;99.90;;;;;;973951;144;27383;-85
2023/12/23 02:24:59;;;;;;;0.53;0.50;;;10.60;99.90;;;;;;972335;143;27346;-85
2023/12/23 02:27:38;;;;;;;0.77;0.70;;;10.60;99.90;;;;;;976441;144;27322;-85
2023/12/23 02:30:05;;;;;;;0.67;0.60;;;10.60;99.90;;;;;;973004;144;27307;-86
2023/12/23 02:32:31;;;;;;;0.83;0.53;;;10.60;99.90;;;;;;976871;144;27291;-86
2023/12/23 02:34:58;;;;;;;1.53;1.00;;;10.50;99.90;;;;;;977591;144;27396;-87
2023/12/23 02:37:24;;;;;;;0.63;0.60;;;10.50;99.90;;;;;;977219;144;27307;-87
2023/12/23 02:39:51;;;;;;;1.40;0.50;;;10.50;99.90;;;;;;976388;144;27748;-85
2023/12/23 02:42:17;;;;;;;1.90;0.80;;;10.50;99.90;;;;;;977005;144;27653;-82
2023/12/23 02:44:44;;;;;;;0.40;0.40;;;10.40;99.90;;;;;;976272;143;27266;-83
2023/12/23 02:47:11;;;;;;;1.37;0.70;;;10.40;99.90;;;;;;971187;144;27293;-86
2023/12/23 02:49:37;;;;;;;1.23;0.60;;;10.40;99.90;;;;;;973103;144;27678;-84
2023/12/23 02:52:04;;;;;;;1.07;0.63;;;10.40;99.90;;;;;;970282;144;27315;-86
2023/12/23 02:54:30;;;;;;;1.17;0.73;;;10.30;99.90;;;;;;971194;144;27280;-86
2023/12/23 02:56:57;;;;;;;1.03;0.70;;;10.30;99.90;;;;;;971216;144;27253;-86
2023/12/23 02:59:24;;;;;;;2.00;0.67;;;10.30;99.90;;;;;;972495;143;27407;-84
2023/12/23 03:01:50;;;;;;;2.77;1.27;;;10.30;99.90;;;;;;934925;148;27355;-86
2023/12/23 03:04:17;;;;;;;0.60;0.60;;;10.30;99.90;;;;;;949355;147;27404;-85
2023/12/23 03:06:43;;;;;;;0.80;0.70;;;10.30;99.90;;;;;;941607;148;27361;-85
2023/12/23 03:09:10;;;;;;;0.53;0.50;;;10.30;99.90;;;;;;972550;144;27358;-85
2023/12/23 03:11:39;;;;;;;1.13;0.60;;;10.30;99.90;;;;;;973898;144;27330;-86
2023/12/23 03:14:06;;;;;;;0.97;0.50;;;10.30;99.90;;;;;;972206;144;27254;-85
2023/12/23 03:16:35;;;;;;;3.20;0.80;;;10.30;99.90;;;;;;972276;144;27335;-84
2023/12/23 03:19:02;;;;;;;0.70;0.70;;;10.30;99.90;;;;;;970558;144;27435;-85
2023/12/23 03:21:29;;;;;;;0.77;0.77;;;10.30;99.90;;;;;;973238;144;27312;-87
2023/12/23 03:23:55;;;;;;;2.10;0.87;;;10.30;99.90;;;;;;969943;144;27360;-84
2023/12/23 03:26:22;;;;;;;0.97;0.63;;;10.30;99.90;;;;;;970248;144;27279;-86
2023/12/23 03:28:48;;;;;;;0.70;0.70;;;10.30;99.90;;;;;;970982;144;27359;-86
2023/12/23 03:31:15;;;;;;;0.90;0.90;;;10.30;99.90;;;;;;972920;144;27302;-85
2023/12/23 03:33:41;;;;;;;0.77;0.77;;;10.30;99.90;;;;;;971766;144;27407;-87
2023/12/23 03:36:08;;;;;;;1.80;0.80;;;10.30;99.90;;;;;;971569;143;27234;-85
2023/12/23 03:38:35;;;;;;;1.73;0.60;;;10.30;99.90;;;;;;970202;144;27265;-84
2023/12/23 03:41:01;;;;;;;1.83;0.70;;;10.30;99.90;;;;;;971623;144;27321;-85
2023/12/23 03:43:28;;;;;;;0.50;0.50;;;10.30;99.90;;;;;;973580;143;27431;-88
2023/12/23 03:45:54;;;;;;;0.90;0.50;;;10.30;99.90;;;;;;968318;143;27259;-85
2023/12/23 03:48:21;;;;;;;1.47;1.00;;;10.30;99.90;;;;;;971832;144;27383;-83
2023/12/23 03:50:48;;;;;;;0.87;0.87;;;10.40;99.90;;;;;;973500;143;27318;-83
2023/12/23 03:53:14;;;;;;;1.47;0.67;;;10.40;99.90;;;;;;971988;143;28022;-89
2023/12/23 03:55:41;;;;;;;2.87;1.10;;;10.40;99.90;;;;;;964561;144;27348;-84
2023/12/23 03:58:07;;;;;;;1.53;0.97;;;10.40;99.90;;;;;;971221;144;27301;-84
2023/12/23 04:00:34;;;;;;;1.03;0.90;;;10.40;99.90;;;;;;971276;144;27266;-85
2023/12/23 04:03:01;;;;;;;0.77;0.77;;;10.50;99.90;;;;;;971314;144;27417;-85
2023/12/23 04:05:27;;;;;;;0.60;0.60;;;10.50;99.90;;;;;;938358;150;27334;-85
2023/12/23 04:07:54;;;;;;;2.73;1.00;;;10.50;99.90;;;;;;920310;152;27308;-85
2023/12/23 04:10:20;;;;;;;0.60;0.57;;;10.50;99.90;;;;;;935919;148;27274;-86
2023/12/23 04:12:47;;;;;;;2.13;0.80;;;10.50;99.90;;;;;;976372;143;27289;-84
2023/12/23 04:15:13;;;;;;;0.90;0.80;;;10.60;99.90;;;;;;978111;143;27292;-86
2023/12/23 04:17:40;;;;;;;1.07;0.80;;;10.60;99.90;;;;;;978798;143;27229;-87
2023/12/23 04:20:07;;;;;;;0.60;0.60;;;10.60;99.90;;;;;;941695;148;27308;-86
2023/12/23 04:22:33;;;;;;;0.40;0.40;;;10.60;99.90;;;;;;932736;151;27363;-86
2023/12/23 04:25:00;;;;;;;0.60;0.60;;;10.60;99.90;;;;;;920328;152;27405;-85
2023/12/23 04:27:26;;;;;;;0.40;0.40;;;10.60;99.90;;;;;;951642;146;27751;-86
2023/12/23 04:29:53;;;;;;;0.53;0.53;;;10.60;99.90;;;;;;933460;148;27276;-86
2023/12/23 04:32:20;;;;;;;0.87;0.50;;;10.60;99.90;;;;;;967679;143;27288;-86
2023/12/23 04:34:46;;;;;;;1.43;0.60;;;10.60;99.90;;;;;;969784;143;27389;-86
2023/12/23 04:37:13;;;;;;;0.87;0.87;;;10.60;99.90;;;;;;972715;143;27430;-86
2023/12/23 04:39:39;;;;;;;1.37;1.13;;;10.60;99.90;;;;;;938094;148;27268;-84
2023/12/23 04:42:06;;;;;;;0.50;0.50;;;10.70;99.90;;;;;;972420;143;27337;-85
2023/12/23 04:44:32;;;;;;;1.63;0.90;;;10.70;99.90;;;;;;973401;144;27243;-86
2023/12/23 04:46:59;;;;;;;1.13;0.80;;;10.70;99.90;;;;;;972675;144;27422;-85
2023/12/23 04:49:26;;;;;;;0.70;0.70;;;10.70;99.90;;;;;;974647;144;27302;-85
2023/12/23 04:51:52;;;;;;;1.67;1.00;;;10.70;99.90;;;;;;971730;144;27259;-86
2023/12/23 04:54:19;;;;;;;1.30;1.20;;;10.70;99.90;;;;;;968875;144;27339;-86
2023/12/23 04:56:45;;;;;;;1.57;1.30;;;10.70;99.90;;;;;;972448;144;27300;-85
2023/12/23 04:59:12;;;;;;;1.37;1.10;;;10.70;99.90;;;;;;971508;144;27395;-84
2023/12/23 05:01:39;;;;;;;1.67;1.27;;;10.70;99.90;;;;;;970523;144;27289;-84
2023/12/23 05:04:05;;;;;;;1.93;1.13;;;10.70;99.90;;;;;;972437;144;27337;-83
2023/12/23 05:06:32;;;;;;;1.87;1.00;;;10.80;99.90;;;;;;972555;144;27379;-84
2023/12/23 05:08:58;;;;;;;2.57;1.40;;;10.80;99.90;;;;;;938955;149;27404;-85
2023/12/23 05:11:25;;;;;;;2.23;1.30;;;10.80;99.90;;;;;;934874;151;27394;-84
2023/12/23 05:13:52;;;;;;;1.53;1.10;;;10.80;99.90;;;;;;930581;151;27263;-84
2023/12/23 05:16:18;;;;;;;2.13;1.40;;;10.80;99.90;;;;;;919374;151;27347;-85
2023/12/23 05:18:45;;;;;;;1.87;1.10;;;10.80;99.90;;;;;;969111;144;27328;-84
2023/12/23 05:21:11;;;;;;;2.10;1.30;;;10.90;99.90;;;;;;973522;144;27317;-84
2023/12/23 05:23:38;;;;;;;1.17;1.07;;;10.90;99.90;;;;;;948787;148;27261;-84
2023/12/23 05:26:04;;;;;;;2.60;0.90;;;10.90;99.90;;;;;;947033;148;27385;-84
2023/12/23 05:28:31;;;;;;;2.67;0.87;;;10.90;99.90;;;;;;937159;149;27345;-85
2023/12/23 05:30:58;;;;;;;2.27;1.10;;;11.00;99.90;;;;;;974789;144;27337;-85
2023/12/23 05:33:24;;;;;;;1.73;0.87;;;11.00;99.90;;;;;;974574;144;27287;-85
2023/12/23 05:35:51;;;;;;;1.77;0.97;;;11.00;99.90;;;;;;974441;144;27334;-84
2023/12/23 05:38:17;;;;;;;4.07;1.37;;;11.00;99.90;;;;;;972753;144;27313;-85
2023/12/23 05:40:44;;;;;;;1.93;1.20;;;11.10;99.90;;;;;;973441;144;27378;-84
2023/12/23 05:43:11;;;;;;;3.87;1.20;;;11.00;99.90;;;;;;974024;144;28863;-84
2023/12/23 05:45:37;;;;;;;2.20;0.83;;;11.10;99.90;;;;;;975026;144;27262;-84
2023/12/23 05:48:04;;;;;;;2.40;1.30;;;11.10;99.90;;;;;;972643;144;27243;-84
2023/12/23 05:50:30;;;;;;;1.53;1.00;;;11.10;99.90;;;;;;970581;144;27442;-84
2023/12/23 05:52:57;;;;;;;1.07;0.80;;;11.10;99.90;;;;;;972137;144;27312;-83
2023/12/23 05:55:24;;;;;;;2.23;1.07;;;11.10;99.90;;;;;;971048;143;27261;-82
2023/12/23 05:57:50;;;;;;;1.97;1.07;;;11.10;99.90;;;;;;973007;143;27371;-83
2023/12/23 06:00:19;;;;;;;2.17;0.80;;;11.10;99.90;;;;;;971095;144;27438;-83
2023/12/23 06:02:43;;;;;;;0.70;0.70;;;11.10;99.90;;;;;;973290;144;27296;-86
2023/12/23 06:05:10;;;;;;;1.27;1.00;;;11.10;99.90;;;;;;971842;143;27434;-84
2023/12/23 06:07:37;;;;;;;2.57;1.20;;;11.10;99.90;;;;;;972989;143;27262;-85
2023/12/23 06:10:03;;;;;;;1.33;0.80;;;11.20;99.90;;;;;;921338;155;27354;-86
2023/12/23 06:12:30;;;;;;;1.23;0.70;;;11.20;99.90;;;;;;971343;144;27261;-88
2023/12/23 06:14:57;;;;;;;2.23;1.03;;;11.20;99.90;;;;;;970755;143;27322;-88
2023/12/23 06:17:23;;;;;;;1.00;0.90;;;11.20;99.90;;;;;;971564;144;27251;-86
2023/12/23 06:19:49;;;;;;;1.80;0.90;;;11.20;99.90;;;;;;971531;143;27367;-87
2023/12/23 06:22:16;;;;;;;3.97;1.17;;;11.20;99.90;;;;;;971830;143;27313;-86
2023/12/23 06:24:43;;;;;;;0.93;0.70;;;11.20;99.90;;;;;;974411;143;27304;-85
2023/12/23 06:27:09;;;;;;;0.90;0.80;;;11.20;99.90;;;;;;970344;143;27441;-86
2023/12/23 06:29:36;;;;;;;2.90;0.70;;;11.20;99.90;;;;;;971516;144;27258;-86
2023/12/23 06:32:02;;;;;;;1.50;0.60;;;11.20;99.90;;;;;;970979;143;27369;-86
2023/12/23 06:34:29;;;;;;;1.70;0.70;;;11.20;99.90;;;;;;971339;143;27402;-88
2023/12/23 06:36:56;;;;;;;1.63;0.70;;;11.20;99.90;;;;;;974223;144;27416;-86
2023/12/23 06:39:24;;;;;;;0.60;0.60;;;11.20;99.90;;;;;;976586;144;27335;-86
2023/12/23 06:41:49;;;;;;;1.23;0.80;;;11.20;99.90;;;;;;972760;144;27321;-86
2023/12/23 06:44:15;;;;;;;0.60;0.60;;;11.20;99.90;;;;;;975561;144;27261;-87
2023/12/23 06:46:42;;;;;;;1.60;1.00;;;11.20;99.90;;;;;;978076;143;27435;-87
2023/12/23 06:49:08;;;;;;;1.10;1.00;;;11.20;99.90;;;;;;982950;144;27405;-87
2023/12/23 06:51:35;;;;;;;2.10;1.10;;;11.20;99.90;;;;;;975027;143;27357;-85
2023/12/23 06:54:02;;;;;;;2.23;1.00;;;11.20;99.90;;;;;;971069;143;27384;-84
2023/12/23 06:56:28;;;;;;;1.43;0.97;;;11.20;99.90;;;;;;971124;143;27340;-84
2023/12/23 06:58:55;;;;;;;2.07;1.03;;;11.20;99.90;;;;;;970287;145;27427;-83
2023/12/23 07:01:21;;;;;;;2.43;0.60;;;11.20;99.90;;;;;;969867;145;27394;-82
2023/12/23 07:03:48;;;;;;;0.70;0.70;;;11.20;99.90;;;;;;967832;145;27251;-83
2023/12/23 07:06:15;;;;;;;0.70;0.70;;;11.20;99.90;;;;;;966969;145;27290;-84
2023/12/23 07:08:41;;;;;;;1.07;0.80;;;11.20;99.90;;;;;;968423;145;27329;-83
2023/12/23 07:11:08;;;;;;;0.93;0.70;;;11.20;99.90;;;;;;968914;145;27343;-86
2023/12/23 07:13:34;;;;;;;3.10;1.00;;;11.20;99.90;;;;;;968737;145;27269;-84
2023/12/23 07:16:01;;;;;;;2.20;0.87;;;11.20;99.90;;;;;;971359;145;27234;-84
2023/12/23 07:18:28;;;;;;;2.23;0.83;;;11.20;99.90;;;;;;973333;145;27415;-84
2023/12/23 07:20:54;;;;;;;1.67;0.90;;;11.30;99.90;;;;;;971871;145;27318;-84
2023/12/23 07:23:21;;;;;;;1.57;0.98;;;11.30;99.90;;;;;;921406;152;27438;-85
2023/12/23 07:25:47;;;;;;;2.00;0.80;;;11.30;99.90;;;;;;941776;149;27329;-84
2023/12/23 07:28:14;;;;;;;1.73;1.10;;;11.30;99.90;;;;;;967113;144;27266;-85
2023/12/23 07:30:44;;;;;;;2.53;1.20;;;11.30;99.90;;;;;;968370;145;27769;-84
2023/12/23 07:33:07;;;;;;;2.33;0.93;;;11.30;99.90;;;;;;949686;148;27291;-84
2023/12/23 07:35:34;;;;;;;2.53;1.00;;;11.30;99.90;;;;;;921433;154;27449;-85
2023/12/23 07:38:00;;;;;;;2.30;0.80;;;11.40;99.90;;;;;;921315;152;27303;-84
2023/12/23 07:40:27;;;;;;;0.93;0.90;;;11.40;99.90;;;;;;971125;144;27422;-87
2023/12/23 07:42:53;;;;;;;1.63;1.00;;;11.40;99.90;;;;;;927785;152;27457;-84
2023/12/23 07:45:21;;;;;;;2.23;1.17;;;11.40;99.90;;;;;;938480;150;27452;-82
2023/12/23 07:47:47;;;;;;;1.07;0.70;;;11.40;99.90;;;;;;949900;148;27293;-84
2023/12/23 07:50:13;;;;;;;1.90;1.00;;;11.40;99.90;;;;;;972286;145;27300;-84
2023/12/23 07:52:40;;;;;;;1.13;1.00;;;11.40;99.90;;;;;;970561;144;27405;-84
2023/12/23 07:55:07;;;;;;;2.20;1.30;;;11.40;99.90;;;;;;921318;152;27449;-84
2023/12/23 07:57:33;;;;;;;3.30;1.37;;;11.50;99.90;;;;;;920748;154;27332;-83
2023/12/23 08:00:00;;;;;;;1.90;0.97;;;11.50;99.90;;;;;;971770;145;27266;-83
2023/12/23 08:02:26;;;;;;;2.10;0.80;;;11.50;99.90;;;;;;970646;145;27342;-83
2023/12/23 08:04:53;;;;;;;2.67;1.17;;;11.50;99.90;;;;;;928705;152;27416;-84
2023/12/23 08:07:19;;;;;;;1.90;1.20;;;11.50;99.90;;;;;;939496;150;27341;-84
2023/12/23 08:09:46;;;;;;;3.03;1.30;;;11.50;99.90;;;;;;945803;148;27317;-84
2023/12/23 08:12:13;;;;;;;2.50;1.00;;;11.50;99.90;;;;;;947251;149;27357;-83
2023/12/23 08:14:39;;;;;;;2.93;1.30;;;11.50;99.90;;;;;;976723;143;27320;-83
2023/12/23 08:17:06;;;;;;;1.53;1.00;;;11.50;99.90;;;;;;972905;144;27266;-84
2023/12/23 08:19:32;;;;;;;3.23;1.33;;;11.50;99.90;;;;;;973842;145;27258;-84
2023/12/23 08:21:59;;;;;;;1.27;0.90;;;11.50;99.90;;;;;;970259;145;27362;-84
2023/12/23 08:24:25;;;;;;;1.67;0.80;;;11.50;99.90;;;;;;970370;145;28143;-84
2023/12/23 08:26:52;;;;;;;1.90;1.00;;;11.60;99.90;;;;;;967704;145;27445;-82
2023/12/23 08:29:19;;;;;;;0.97;0.70;;;11.60;99.90;;;;;;972700;145;27970;-82
2023/12/23 08:31:45;;;;;;;1.50;0.77;;;11.60;99.90;;;;;;921349;152;27662;-83
2023/12/23 08:34:12;;;;;;;2.33;0.90;;;11.60;99.90;;;;;;942825;148;27346;-83
2023/12/23 08:36:38;;;;;;;1.53;0.90;;;11.60;99.90;;;;;;945202;148;27339;-83
2023/12/23 08:39:05;;;;;;;2.23;1.00;;;11.60;99.90;;;;;;940217;149;27255;-83
2023/12/23 08:41:32;;;;;;;1.50;1.00;;;11.60;99.90;;;;;;940572;150;27751;-83
2023/12/23 08:43:58;;;;;;;1.07;1.00;;;11.70;99.90;;;;;;939397;150;27305;-83
2023/12/23 08:46:25;;;;;;;2.90;1.10;;;11.70;99.90;;;;;;940858;148;27348;-83
2023/12/23 08:48:51;;;;;;;2.40;1.00;;;11.70;99.90;;;;;;939615;149;27337;-83
2023/12/23 08:51:18;;;;;;;4.73;1.10;;;11.70;99.90;;;;;;940020;149;27477;-82
2023/12/23 08:53:44;;;;;;;2.77;1.10;;;11.80;99.90;;;;;;937907;148;27303;-82
2023/12/23 08:56:11;;;;;;;1.62;1.17;;;11.80;99.90;;;;;;973621;143;27281;-83
2023/12/23 08:58:38;;;;;;;2.03;1.13;;;11.80;99.90;;;;;;974584;143;27298;-82
2023/12/23 09:01:04;;;;;;;3.30;1.00;;;11.90;99.90;;;;;;968911;145;27278;-82
2023/12/23 09:03:31;;;;;;;1.60;1.13;;;11.90;99.90;;;;;;950687;146;27282;-82
2023/12/23 09:05:57;;;;;;;1.98;1.05;;;11.90;99.90;;;;;;939600;149;27259;-82
2023/12/23 09:08:24;;;;;;;2.05;0.90;;;12.00;99.90;;;;;;933350;149;27530;-82
2023/12/23 09:10:51;;;;;;;1.82;0.90;;;12.00;99.90;;;;;;969431;145;27321;-82
2023/12/23 09:13:17;;;;;;;2.17;1.00;;;12.10;99.90;;;;;;973186;144;27311;-82
2023/12/23 09:15:44;;;;;;;1.07;0.87;;;12.10;99.90;;;;;;970329;144;27270;-82
2023/12/23 09:18:10;;;;;;;1.10;1.00;;;12.10;99.90;;;;;;973712;145;27418;-83
2023/12/23 09:20:37;;;;;;;3.00;1.50;;;12.10;99.90;;;;;;968502;145;27321;-82
2023/12/23 09:23:04;;;;;;;3.12;1.15;;;12.20;99.90;;;;;;968260;145;27269;-83
2023/12/23 09:25:30;;;;;;;1.27;0.73;;;12.20;99.90;;;;;;967463;145;27372;-83
2023/12/23 09:27:57;;;;;;;1.63;0.80;;;12.20;99.90;;;;;;970136;145;27251;-83
2023/12/23 09:30:23;;;;;;;1.17;0.90;;;12.20;99.90;;;;;;920218;152;27470;-82
2023/12/23 09:32:50;;;;;;;1.10;0.63;;;12.20;99.90;;;;;;921069;152;27317;-82
2023/12/23 09:35:16;;;;;;;1.07;0.70;;;12.20;99.90;;;;;;969169;145;27317;-84
2023/12/23 09:37:44;;;;;;;1.50;0.70;;;12.20;99.90;;;;;;965626;145;27312;-83
2023/12/23 09:40:10;;;;;;;0.97;0.80;;;12.20;99.90;;;;;;967845;145;27390;-86
2023/12/23 09:42:36;;;;;;;3.17;0.80;;;12.10;99.90;;;;;;968475;145;27326;-84
2023/12/23 09:45:03;;;;;;;1.20;0.83;;;12.10;99.90;;;;;;919542;154;27449;-83
2023/12/23 09:47:29;;;;;;;0.70;0.67;;;12.10;99.90;;;;;;940435;149;27294;-85
2023/12/23 09:49:56;;;;;;;0.70;0.70;;;12.10;99.90;;;;;;967392;144;27361;-84
2023/12/23 09:52:23;;;;;;;0.72;0.70;;;12.10;99.90;;;;;;972650;144;27411;-85
2023/12/23 09:54:49;;;;;;;1.17;0.93;;;12.10;99.90;;;;;;970524;144;27358;-84
2023/12/23 09:57:16;;;;;;;1.10;0.80;;;12.00;99.90;;;;;;970615;144;27259;-85
2023/12/23 09:59:42;;;;;;;0.70;0.70;;;12.00;99.90;;;;;;971670;144;27317;-84
2023/12/23 10:02:09;;;;;;;0.87;0.83;;;12.00;99.90;;;;;;970529;144;27341;-85
2023/12/23 10:04:36;;;;;;;2.63;0.60;;;11.90;99.90;;;;;;969797;144;28378;-84
2023/12/23 10:07:02;;;;;;;0.80;0.63;;;11.90;99.90;;;;;;966583;144;27331;-85
2023/12/23 10:09:29;;;;;;;4.17;2.37;;;11.90;99.90;;;;;;968486;144;27310;-83
2023/12/23 10:11:55;;;;;;;2.90;1.97;;;11.80;99.90;;;;;;968939;144;27341;-83
2023/12/23 10:14:22;;;;;;;2.57;1.77;;;11.80;99.90;;;;;;959142;144;27326;-84
2023/12/23 10:16:48;;;;;;;5.30;2.50;;;11.80;99.90;;;;;;961614;144;28022;-83
2023/12/23 10:19:15;;;;;;;2.90;1.93;;;11.80;99.90;;;;;;965953;144;27371;-82
2023/12/23 10:21:42;;;;;;;6.78;3.37;;;11.70;99.90;;;;;;966614;144;27443;-83
2023/12/23 10:24:08;;;;;;;5.10;2.83;;;11.70;99.90;;;;;;967301;144;27337;-84
2023/12/23 10:26:35;;;;;;;8.47;4.50;;;11.70;99.90;;;;;;969110;144;27872;-83
2023/12/23 10:29:01;;;;;;;4.17;2.40;;;11.70;99.90;;;;;;966616;144;27258;-84
2023/12/23 10:31:28;;;;;;;7.65;3.27;;;11.70;99.90;;;;;;969002;144;27360;-83
2023/12/23 10:33:55;;;;;;;2.03;1.47;;;11.70;99.90;;;;;;968583;144;27309;-85
2023/12/23 10:36:21;;;;;;;1.60;1.20;;;11.70;99.90;;;;;;961033;144;27308;-84
2023/12/23 10:38:49;;;;;;;1.50;0.95;;;11.70;99.90;;;;;;964877;144;27641;-83
2023/12/23 10:41:20;;;;;;;1.37;1.03;;;11.70;99.90;;;;;;967926;144;27255;-84
2023/12/23 10:43:47;;;;;;;1.37;1.10;;;11.70;99.90;;;;;;964313;144;27747;-84
2023/12/23 10:46:14;;;;;;;0.93;0.70;;;11.70;99.90;;;;;;966854;144;27839;-84
2023/12/23 10:48:40;;;;;;;0.88;0.88;;;11.70;99.90;;;;;;967782;144;27429;-84
2023/12/23 10:51:06;;;;;;;0.62;0.60;;;11.70;99.90;;;;;;966473;144;27319;-84
2023/12/23 10:53:33;;;;;;;0.70;0.70;;;11.70;99.90;;;;;;969824;143;27342;-84
2023/12/23 10:55:59;;;;;;;0.90;0.82;;;11.70;99.90;;;;;;967908;143;27335;-84
2023/12/23 10:58:26;;;;;;;0.53;0.40;;;11.80;99.90;;;;;;969961;143;27365;-84
2023/12/23 11:00:53;;;;;;;0.50;0.50;;;11.80;99.90;;;;;;968251;143;27680;-84
2023/12/23 11:03:19;;;;;;;0.40;0.40;;;11.80;99.90;;;;;;966497;144;27365;-84
2023/12/23 11:05:46;;;;;;;0.40;0.40;;;11.80;99.90;;;;;;968270;143;27333;-83
2023/12/23 11:08:13;;;;;;;1.50;0.50;;;11.80;99.90;;;;;;967706;144;27384;-83
2023/12/23 11:10:39;;;;;;;0.40;0.40;;;11.90;99.90;;;;;;968967;144;27371;-84
2023/12/23 11:13:06;;;;;;;0.53;0.53;;;11.90;99.90;;;;;;968310;143;27403;-82
2023/12/23 11:15:32;;;;;;;0.40;0.40;;;11.90;99.90;;;;;;969695;143;27311;-83
2023/12/23 11:18:01;;;;;;;0.70;0.50;;;11.90;99.90;;;;;;970188;143;27310;-86
2023/12/23 11:20:37;;;;;;;0.40;0.40;;;12.00;99.90;;;;;;969325;143;27297;-84
2023/12/23 11:23:31;;;;;;;0.50;0.50;;;12.00;99.90;;;;;;968178;143;27293;-85
2023/12/23 11:25:55;;;;;;;0.53;0.53;;;12.00;99.90;;;;;;968318;143;27289;-83
2023/12/23 11:28:22;;;;;;;1.27;1.13;;;12.10;99.90;;;;;;967698;143;27337;-84
2023/12/23 11:30:51;;;;;;;1.80;1.70;;;12.10;99.90;;;;;;969732;143;27713;-84
2023/12/23 11:33:20;;;;;;;0.78;0.78;;;12.10;99.90;;;;;;970019;143;27321;-83
2023/12/23 11:35:48;;;;;;;0.63;0.63;;;12.10;99.90;;;;;;973846;143;27352;-84
2023/12/23 11:38:15;;;;;;;0.78;0.40;;;12.10;99.90;;;;;;972461;144;27375;-82
2023/12/23 11:40:41;;;;;;;1.57;0.50;;;12.20;99.90;;;;;;973862;143;27783;-84
2023/12/23 11:43:08;;;;;;;0.70;0.70;;;12.20;99.90;;;;;;972467;143;27868;-83
2023/12/23 11:45:34;;;;;;;0.70;0.50;;;12.20;99.90;;;;;;973143;143;27848;-83
2023/12/23 11:48:01;;;;;;;0.80;0.40;;;12.20;99.90;;;;;;970980;143;27334;-82
2023/12/23 11:50:27;;;;;;;0.93;0.30;;;12.20;99.90;;;;;;971762;143;27408;-83
2023/12/23 11:52:54;;;;;;;0.60;0.40;;;12.20;99.90;;;;;;970397;143;27317;-84
2023/12/23 11:55:22;;;;;;;0.43;0.43;;;12.20;99.90;;;;;;971042;144;27329;-84
2023/12/23 11:57:47;;;;;;;0.50;0.40;;;12.20;99.90;;;;;;972117;144;27793;-84
2023/12/23 12:00:14;;;;;;;0.30;0.30;;;12.20;99.90;;;;;;969638;143;27371;-85
2023/12/23 12:02:40;;;;;;;0.40;0.40;;;12.30;99.90;;;;;;970770;144;27375;-84
2023/12/23 12:05:07;;;;;;;0.63;0.50;;;12.30;99.90;;;;;;970468;144;27334;-84
2023/12/23 12:07:34;;;;;;;1.15;0.50;;;12.30;99.90;;;;;;973776;144;27431;-86
2023/12/23 12:10:00;;;;;;;0.50;0.50;;;12.30;99.90;;;;;;973306;144;27304;-86
2023/12/23 12:12:27;;;;;;;0.50;0.50;;;12.40;99.90;;;;;;970884;144;27321;-84
2023/12/23 12:14:53;;;;;;;0.40;0.40;;;12.40;99.90;;;;;;970816;144;27309;-83
2023/12/23 12:17:20;;;;;;;0.57;0.50;;;12.40;99.90;;;;;;971090;144;27984;-84
2023/12/23 12:19:47;;;;;;;0.50;0.50;;;12.50;99.90;;;;;;972343;144;27262;-82
2023/12/23 12:22:13;;;;;;;0.80;0.72;;;12.50;99.90;;;;;;971213;144;27238;-84
2023/12/23 12:24:41;;;;;;;1.00;0.97;;;12.50;99.90;;;;;;973038;143;27452;-84
2023/12/23 12:27:06;;;;;;;1.70;0.95;;;12.50;99.90;;;;;;972060;144;27338;-84
2023/12/23 12:29:33;;;;;;;1.02;0.82;;;12.60;99.90;;;;;;972293;144;27245;-84
2023/12/23 12:32:00;;;;;;;2.75;1.27;;;12.60;99.90;;;;;;972079;144;27251;-84
2023/12/23 12:34:26;;;;;;;0.70;0.70;;;12.60;99.90;;;;;;972275;143;27294;-84
2023/12/23 12:36:53;;;;;;;0.82;0.60;;;12.60;99.90;;;;;;937428;148;27445;-83
2023/12/23 12:39:19;;;;;;;1.25;0.98;;;12.60;99.90;;;;;;928428;150;27384;-83
2023/12/23 12:41:46;;;;;;;1.32;1.22;;;12.70;99.90;;;;;;938139;148;27323;-83
2023/12/23 12:44:12;;;;;;;0.90;0.90;;;12.70;99.90;;;;;;969089;144;27268;-83